sensor_id;sensor_type;location;lat;lon;timestamp;P1;durP1;ratioP1;P2;durP2;ratioP2
23260;SDS011;11799;47.740;-3.390;2022-07-29T00:01:21;1.95;;;1.73;;
23260;SDS011;11799;47.740;-3.390;2022-07-29T00:03:47;3.17;;;2.17;;
23260;SDS011;11799;47.740;-3.390;2022-07-29T00:06:13;2.42;;;1.70;;
23260;SDS011;11799;47.740;-3.390;2022-07-29T00:08:39;3.17;;;1.63;;
23260;SDS011;11799;47.740;-3.390;2022-07-29T00:11:05;2.53;;;1.50;;
23260;SDS011;11799;47.740;-3.390;2022-07-29T00:13:30;5.35;;;2.00;;
23260;SDS011;11799;47.740;-3.390;2022-07-29T00:15:56;4.90;;;1.85;;
23260;SDS011;11799;47.740;-3.390;2022-07-29T00:18:22;5.70;;;1.98;;
23260;SDS011;11799;47.740;-3.390;2022-07-29T00:20:47;2.90;;;1.70;;
23260;SDS011;11799;47.740;-3.390;2022-07-29T00:23:13;5.43;;;1.77;;
23260;SDS011;11799;47.740;-3.390;2022-07-29T00:25:38;7.20;;;1.88;;
23260;SDS011;11799;47.740;-3.390;2022-07-29T00:28:04;3.47;;;1.75;;
23260;SDS011;11799;47.740;-3.390;2022-07-29T00:30:30;3.38;;;1.67;;
23260;SDS011;11799;47.740;-3.390;2022-07-29T00:32:55;8.02;;;1.83;;
23260;SDS011;11799;47.740;-3.390;2022-07-29T00:35:21;4.50;;;1.80;;
23260;SDS011;11799;47.740;-3.390;2022-07-29T00:38:05;4.18;;;1.58;;
23260;SDS011;11799;47.740;-3.390;2022-07-29T00:40:30;3.55;;;2.13;;
23260;SDS011;11799;47.740;-3.390;2022-07-29T00:42:56;4.90;;;1.80;;
23260;SDS011;11799;47.740;-3.390;2022-07-29T00:45:22;4.78;;;1.80;;
23260;SDS011;11799;47.740;-3.390;2022-07-29T00:47:47;5.03;;;1.90;;
23260;SDS011;11799;47.740;-3.390;2022-07-29T00:50:13;5.43;;;1.80;;
23260;SDS011;11799;47.740;-3.390;2022-07-29T00:52:39;2.83;;;1.65;;
23260;SDS011;11799;47.740;-3.390;2022-07-29T00:55:08;3.67;;;1.80;;
23260;SDS011;11799;47.740;-3.390;2022-07-29T00:57:35;5.18;;;1.75;;
23260;SDS011;11799;47.740;-3.390;2022-07-29T01:00:05;7.35;;;2.13;;
23260;SDS011;11799;47.740;-3.390;2022-07-29T01:02:32;3.40;;;1.80;;
23260;SDS011;11799;47.740;-3.390;2022-07-29T01:04:57;3.20;;;1.90;;
23260;SDS011;11799;47.740;-3.390;2022-07-29T01:07:24;2.13;;;1.77;;
23260;SDS011;11799;47.740;-3.390;2022-07-29T01:09:51;3.95;;;1.80;;
23260;SDS011;11799;47.740;-3.390;2022-07-29T01:12:19;3.90;;;1.80;;
23260;SDS011;11799;47.740;-3.390;2022-07-29T01:14:48;2.85;;;1.77;;
23260;SDS011;11799;47.740;-3.390;2022-07-29T01:30:51;4.47;;;1.95;;
23260;SDS011;11799;47.740;-3.390;2022-07-29T01:33:18;3.83;;;2.25;;
23260;SDS011;11799;47.740;-3.390;2022-07-29T01:36:07;5.25;;;2.10;;
23260;SDS011;11799;47.740;-3.390;2022-07-29T01:38:38;5.15;;;2.00;;
23260;SDS011;11799;47.740;-3.390;2022-07-29T01:41:08;2.70;;;1.80;;
23260;SDS011;11799;47.740;-3.390;2022-07-29T01:43:38;4.55;;;2.03;;
23260;SDS011;11799;47.740;-3.390;2022-07-29T01:46:11;5.63;;;2.22;;
23260;SDS011;11799;47.740;-3.390;2022-07-29T01:48:45;5.00;;;2.17;;
23260;SDS011;11799;47.740;-3.390;2022-07-29T01:51:31;3.13;;;2.03;;
23260;SDS011;11799;47.740;-3.390;2022-07-29T01:54:08;5.80;;;2.25;;
23260;SDS011;11799;47.740;-3.390;2022-07-29T01:56:38;2.85;;;1.85;;
23260;SDS011;11799;47.740;-3.390;2022-07-29T01:59:06;3.70;;;2.22;;
23260;SDS011;11799;47.740;-3.390;2022-07-29T02:01:33;4.07;;;2.30;;
23260;SDS011;11799;47.740;-3.390;2022-07-29T02:04:04;4.15;;;2.20;;
23260;SDS011;11799;47.740;-3.390;2022-07-29T02:06:33;5.28;;;2.38;;
23260;SDS011;11799;47.740;-3.390;2022-07-29T02:09:02;5.68;;;2.40;;
23260;SDS011;11799;47.740;-3.390;2022-07-29T02:11:30;4.32;;;2.20;;
23260;SDS011;11799;47.740;-3.390;2022-07-29T02:13:58;4.88;;;2.10;;
23260;SDS011;11799;47.740;-3.390;2022-07-29T02:16:26;5.00;;;2.30;;
23260;SDS011;11799;47.740;-3.390;2022-07-29T02:18:56;6.78;;;2.28;;
23260;SDS011;11799;47.740;-3.390;2022-07-29T02:21:25;4.32;;;2.30;;
23260;SDS011;11799;47.740;-3.390;2022-07-29T02:23:53;3.92;;;1.90;;
23260;SDS011;11799;47.740;-3.390;2022-07-29T02:26:21;4.28;;;2.28;;
23260;SDS011;11799;47.740;-3.390;2022-07-29T02:28:49;4.95;;;2.20;;
23260;SDS011;11799;47.740;-3.390;2022-07-29T02:31:20;3.85;;;2.03;;
23260;SDS011;11799;47.740;-3.390;2022-07-29T02:33:47;3.40;;;2.00;;
23260;SDS011;11799;47.740;-3.390;2022-07-29T02:36:14;8.20;;;2.40;;
23260;SDS011;11799;47.740;-3.390;2022-07-29T02:38:41;5.70;;;2.08;;
23260;SDS011;11799;47.740;-3.390;2022-07-29T02:41:18;4.20;;;2.40;;
23260;SDS011;11799;47.740;-3.390;2022-07-29T02:43:48;4.47;;;2.22;;
23260;SDS011;11799;47.740;-3.390;2022-07-29T02:46:24;4.07;;;2.17;;
23260;SDS011;11799;47.740;-3.390;2022-07-29T02:48:56;3.83;;;2.20;;
23260;SDS011;11799;47.740;-3.390;2022-07-29T02:56:58;2.20;;;1.98;;
23260;SDS011;11799;47.740;-3.390;2022-07-29T02:59:29;6.80;;;2.45;;
23260;SDS011;11799;47.740;-3.390;2022-07-29T03:01:57;3.88;;;2.30;;
23260;SDS011;11799;47.740;-3.390;2022-07-29T03:04:25;2.88;;;2.35;;
23260;SDS011;11799;47.740;-3.390;2022-07-29T03:06:53;3.05;;;2.28;;
23260;SDS011;11799;47.740;-3.390;2022-07-29T03:09:19;4.28;;;2.47;;
23260;SDS011;11799;47.740;-3.390;2022-07-29T03:11:47;5.15;;;2.42;;
23260;SDS011;11799;47.740;-3.390;2022-07-29T03:14:12;5.18;;;2.53;;
23260;SDS011;11799;47.740;-3.390;2022-07-29T03:16:39;5.13;;;2.35;;
23260;SDS011;11799;47.740;-3.390;2022-07-29T03:19:05;4.82;;;2.30;;
23260;SDS011;11799;47.740;-3.390;2022-07-29T03:21:31;6.38;;;2.22;;
23260;SDS011;11799;47.740;-3.390;2022-07-29T03:23:57;3.85;;;2.50;;
23260;SDS011;11799;47.740;-3.390;2022-07-29T03:26:22;3.47;;;2.17;;
23260;SDS011;11799;47.740;-3.390;2022-07-29T03:28:48;2.55;;;2.20;;
23260;SDS011;11799;47.740;-3.390;2022-07-29T03:31:13;4.25;;;2.40;;
23260;SDS011;11799;47.740;-3.390;2022-07-29T03:33:39;4.97;;;2.50;;
23260;SDS011;11799;47.740;-3.390;2022-07-29T03:36:04;5.70;;;2.20;;
23260;SDS011;11799;47.740;-3.390;2022-07-29T03:38:30;4.40;;;2.08;;
23260;SDS011;11799;47.740;-3.390;2022-07-29T03:41:00;4.97;;;2.35;;
23260;SDS011;11799;47.740;-3.390;2022-07-29T03:43:33;4.38;;;2.30;;
23260;SDS011;11799;47.740;-3.390;2022-07-29T03:46:02;5.25;;;2.50;;
23260;SDS011;11799;47.740;-3.390;2022-07-29T03:48:31;4.45;;;2.30;;
23260;SDS011;11799;47.740;-3.390;2022-07-29T03:51:00;3.47;;;2.00;;
23260;SDS011;11799;47.740;-3.390;2022-07-29T03:53:26;6.88;;;2.40;;
23260;SDS011;11799;47.740;-3.390;2022-07-29T03:55:53;3.35;;;2.22;;
23260;SDS011;11799;47.740;-3.390;2022-07-29T03:58:23;5.63;;;2.22;;
23260;SDS011;11799;47.740;-3.390;2022-07-29T04:00:52;4.90;;;2.20;;
23260;SDS011;11799;47.740;-3.390;2022-07-29T04:03:19;4.40;;;2.30;;
23260;SDS011;11799;47.740;-3.390;2022-07-29T04:05:57;4.63;;;2.42;;
23260;SDS011;11799;47.740;-3.390;2022-07-29T04:08:23;4.03;;;2.30;;
23260;SDS011;11799;47.740;-3.390;2022-07-29T04:10:49;3.88;;;2.40;;
23260;SDS011;11799;47.740;-3.390;2022-07-29T04:13:15;5.85;;;2.55;;
23260;SDS011;11799;47.740;-3.390;2022-07-29T04:15:40;4.65;;;2.60;;
23260;SDS011;11799;47.740;-3.390;2022-07-29T04:18:06;2.80;;;2.10;;
23260;SDS011;11799;47.740;-3.390;2022-07-29T04:20:31;4.65;;;2.13;;
23260;SDS011;11799;47.740;-3.390;2022-07-29T04:22:57;2.83;;;2.13;;
23260;SDS011;11799;47.740;-3.390;2022-07-29T04:25:22;3.92;;;2.40;;
23260;SDS011;11799;47.740;-3.390;2022-07-29T04:27:48;4.35;;;2.10;;
23260;SDS011;11799;47.740;-3.390;2022-07-29T04:30:25;5.38;;;2.20;;
23260;SDS011;11799;47.740;-3.390;2022-07-29T04:32:51;3.20;;;2.35;;
23260;SDS011;11799;47.740;-3.390;2022-07-29T04:35:17;5.57;;;2.30;;
23260;SDS011;11799;47.740;-3.390;2022-07-29T04:37:44;4.93;;;2.55;;
23260;SDS011;11799;47.740;-3.390;2022-07-29T04:40:10;3.72;;;2.58;;
23260;SDS011;11799;47.740;-3.390;2022-07-29T04:42:37;3.33;;;2.30;;
23260;SDS011;11799;47.740;-3.390;2022-07-29T04:45:03;6.65;;;2.60;;
23260;SDS011;11799;47.740;-3.390;2022-07-29T04:47:29;2.80;;;2.45;;
23260;SDS011;11799;47.740;-3.390;2022-07-29T04:49:55;6.20;;;2.47;;
23260;SDS011;11799;47.740;-3.390;2022-07-29T04:52:21;3.33;;;2.10;;
23260;SDS011;11799;47.740;-3.390;2022-07-29T04:54:48;4.32;;;2.30;;
23260;SDS011;11799;47.740;-3.390;2022-07-29T04:57:14;3.13;;;2.35;;
23260;SDS011;11799;47.740;-3.390;2022-07-29T04:59:39;8.50;;;2.40;;
23260;SDS011;11799;47.740;-3.390;2022-07-29T05:02:05;6.75;;;2.20;;
23260;SDS011;11799;47.740;-3.390;2022-07-29T05:04:31;5.57;;;2.30;;
23260;SDS011;11799;47.740;-3.390;2022-07-29T05:06:56;5.03;;;2.55;;
23260;SDS011;11799;47.740;-3.390;2022-07-29T05:09:22;3.78;;;2.17;;
23260;SDS011;11799;47.740;-3.390;2022-07-29T05:11:47;3.50;;;1.98;;
23260;SDS011;11799;47.740;-3.390;2022-07-29T05:14:13;4.10;;;2.70;;
23260;SDS011;11799;47.740;-3.390;2022-07-29T05:16:39;4.60;;;2.50;;
23260;SDS011;11799;47.740;-3.390;2022-07-29T05:19:05;5.55;;;2.40;;
23260;SDS011;11799;47.740;-3.390;2022-07-29T05:21:31;5.35;;;2.47;;
23260;SDS011;11799;47.740;-3.390;2022-07-29T05:23:57;3.35;;;2.58;;
23260;SDS011;11799;47.740;-3.390;2022-07-29T05:26:22;2.95;;;2.33;;
23260;SDS011;11799;47.740;-3.390;2022-07-29T05:28:48;3.78;;;2.10;;
23260;SDS011;11799;47.740;-3.390;2022-07-29T05:31:14;4.80;;;2.28;;
23260;SDS011;11799;47.740;-3.390;2022-07-29T05:33:40;4.18;;;2.10;;
23260;SDS011;11799;47.740;-3.390;2022-07-29T05:36:06;5.38;;;2.17;;
23260;SDS011;11799;47.740;-3.390;2022-07-29T05:38:32;6.53;;;2.53;;
23260;SDS011;11799;47.740;-3.390;2022-07-29T05:40:58;1.92;;;1.73;;
23260;SDS011;11799;47.740;-3.390;2022-07-29T05:43:25;4.90;;;2.08;;
23260;SDS011;11799;47.740;-3.390;2022-07-29T05:45:51;2.85;;;2.08;;
23260;SDS011;11799;47.740;-3.390;2022-07-29T05:48:17;4.57;;;2.20;;
23260;SDS011;11799;47.740;-3.390;2022-07-29T05:50:42;6.97;;;2.53;;
23260;SDS011;11799;47.740;-3.390;2022-07-29T05:53:13;5.25;;;2.50;;
23260;SDS011;11799;47.740;-3.390;2022-07-29T05:55:38;4.28;;;2.20;;
23260;SDS011;11799;47.740;-3.390;2022-07-29T05:58:04;6.07;;;2.78;;
23260;SDS011;11799;47.740;-3.390;2022-07-29T06:00:30;3.75;;;2.30;;
23260;SDS011;11799;47.740;-3.390;2022-07-29T06:02:55;8.35;;;2.20;;
23260;SDS011;11799;47.740;-3.390;2022-07-29T06:05:22;8.90;;;2.30;;
23260;SDS011;11799;47.740;-3.390;2022-07-29T06:07:47;5.40;;;2.50;;
23260;SDS011;11799;47.740;-3.390;2022-07-29T06:10:13;2.97;;;2.20;;
23260;SDS011;11799;47.740;-3.390;2022-07-29T06:12:39;3.38;;;2.60;;
23260;SDS011;11799;47.740;-3.390;2022-07-29T06:15:05;3.42;;;2.08;;
23260;SDS011;11799;47.740;-3.390;2022-07-29T06:17:31;6.80;;;2.50;;
23260;SDS011;11799;47.740;-3.390;2022-07-29T06:19:56;4.90;;;2.50;;
23260;SDS011;11799;47.740;-3.390;2022-07-29T06:22:22;3.83;;;2.40;;
23260;SDS011;11799;47.740;-3.390;2022-07-29T06:24:48;8.30;;;2.58;;
23260;SDS011;11799;47.740;-3.390;2022-07-29T06:27:13;6.05;;;2.78;;
23260;SDS011;11799;47.740;-3.390;2022-07-29T06:29:39;8.55;;;2.35;;
23260;SDS011;11799;47.740;-3.390;2022-07-29T06:32:04;7.00;;;2.38;;
23260;SDS011;11799;47.740;-3.390;2022-07-29T06:34:30;8.95;;;2.65;;
23260;SDS011;11799;47.740;-3.390;2022-07-29T06:36:56;8.23;;;2.50;;
23260;SDS011;11799;47.740;-3.390;2022-07-29T06:39:21;6.32;;;2.00;;
23260;SDS011;11799;47.740;-3.390;2022-07-29T06:41:47;5.95;;;2.47;;
23260;SDS011;11799;47.740;-3.390;2022-07-29T06:44:14;3.03;;;2.25;;
23260;SDS011;11799;47.740;-3.390;2022-07-29T06:46:40;4.25;;;2.30;;
23260;SDS011;11799;47.740;-3.390;2022-07-29T06:49:06;6.47;;;2.65;;
23260;SDS011;11799;47.740;-3.390;2022-07-29T06:51:32;3.97;;;2.45;;
23260;SDS011;11799;47.740;-3.390;2022-07-29T06:53:58;4.50;;;2.38;;
23260;SDS011;11799;47.740;-3.390;2022-07-29T06:56:24;5.50;;;2.42;;
23260;SDS011;11799;47.740;-3.390;2022-07-29T06:58:50;5.68;;;2.15;;
23260;SDS011;11799;47.740;-3.390;2022-07-29T07:01:15;5.93;;;2.00;;
23260;SDS011;11799;47.740;-3.390;2022-07-29T07:03:41;4.97;;;2.13;;
23260;SDS011;11799;47.740;-3.390;2022-07-29T07:06:07;3.17;;;2.13;;
23260;SDS011;11799;47.740;-3.390;2022-07-29T07:08:33;5.35;;;2.55;;
23260;SDS011;11799;47.740;-3.390;2022-07-29T07:10:58;6.88;;;2.55;;
23260;SDS011;11799;47.740;-3.390;2022-07-29T07:13:24;3.78;;;2.10;;
23260;SDS011;11799;47.740;-3.390;2022-07-29T07:15:50;4.28;;;2.28;;
23260;SDS011;11799;47.740;-3.390;2022-07-29T07:18:17;4.13;;;2.00;;
23260;SDS011;11799;47.740;-3.390;2022-07-29T07:20:43;3.13;;;2.20;;
23260;SDS011;11799;47.740;-3.390;2022-07-29T07:23:09;7.30;;;2.25;;
23260;SDS011;11799;47.740;-3.390;2022-07-29T07:25:35;3.42;;;2.00;;
23260;SDS011;11799;47.740;-3.390;2022-07-29T07:28:00;4.90;;;2.22;;
23260;SDS011;11799;47.740;-3.390;2022-07-29T07:30:26;4.43;;;2.08;;
23260;SDS011;11799;47.740;-3.390;2022-07-29T07:32:53;5.00;;;2.60;;
23260;SDS011;11799;47.740;-3.390;2022-07-29T07:35:18;5.45;;;2.15;;
23260;SDS011;11799;47.740;-3.390;2022-07-29T07:37:44;4.93;;;2.22;;
23260;SDS011;11799;47.740;-3.390;2022-07-29T07:40:10;5.65;;;2.38;;
23260;SDS011;11799;47.740;-3.390;2022-07-29T07:42:37;5.03;;;2.25;;
23260;SDS011;11799;47.740;-3.390;2022-07-29T07:45:03;5.03;;;1.85;;
23260;SDS011;11799;47.740;-3.390;2022-07-29T07:47:30;2.30;;;1.80;;
23260;SDS011;11799;47.740;-3.390;2022-07-29T07:49:55;4.57;;;1.95;;
23260;SDS011;11799;47.740;-3.390;2022-07-29T07:52:21;4.28;;;2.13;;
23260;SDS011;11799;47.740;-3.390;2022-07-29T07:54:47;4.13;;;2.00;;
23260;SDS011;11799;47.740;-3.390;2022-07-29T07:57:13;5.28;;;2.05;;
23260;SDS011;11799;47.740;-3.390;2022-07-29T07:59:40;5.70;;;2.15;;
23260;SDS011;11799;47.740;-3.390;2022-07-29T08:02:06;3.33;;;1.83;;
23260;SDS011;11799;47.740;-3.390;2022-07-29T08:04:32;6.22;;;2.33;;
23260;SDS011;11799;47.740;-3.390;2022-07-29T08:06:58;4.90;;;1.90;;
23260;SDS011;11799;47.740;-3.390;2022-07-29T08:09:25;3.25;;;2.05;;
23260;SDS011;11799;47.740;-3.390;2022-07-29T08:11:51;5.78;;;1.83;;
23260;SDS011;11799;47.740;-3.390;2022-07-29T08:14:17;5.57;;;2.00;;
23260;SDS011;11799;47.740;-3.390;2022-07-29T08:16:43;4.30;;;1.80;;
23260;SDS011;11799;47.740;-3.390;2022-07-29T08:19:09;4.72;;;1.77;;
23260;SDS011;11799;47.740;-3.390;2022-07-29T08:21:35;5.07;;;2.00;;
23260;SDS011;11799;47.740;-3.390;2022-07-29T08:24:01;5.00;;;2.15;;
23260;SDS011;11799;47.740;-3.390;2022-07-29T08:26:45;4.35;;;2.00;;
23260;SDS011;11799;47.740;-3.390;2022-07-29T08:29:11;9.82;;;2.10;;
23260;SDS011;11799;47.740;-3.390;2022-07-29T08:31:37;4.13;;;1.77;;
23260;SDS011;11799;47.740;-3.390;2022-07-29T08:34:03;5.30;;;1.52;;
23260;SDS011;11799;47.740;-3.390;2022-07-29T08:36:29;2.63;;;1.73;;
23260;SDS011;11799;47.740;-3.390;2022-07-29T08:38:55;6.32;;;1.85;;
23260;SDS011;11799;47.740;-3.390;2022-07-29T08:41:21;3.03;;;1.50;;
23260;SDS011;11799;47.740;-3.390;2022-07-29T08:43:47;5.03;;;1.73;;
23260;SDS011;11799;47.740;-3.390;2022-07-29T08:46:14;2.47;;;1.75;;
23260;SDS011;11799;47.740;-3.390;2022-07-29T08:48:40;3.50;;;1.70;;
23260;SDS011;11799;47.740;-3.390;2022-07-29T08:51:06;3.17;;;1.60;;
23260;SDS011;11799;47.740;-3.390;2022-07-29T08:53:33;9.80;;;4.53;;
23260;SDS011;11799;47.740;-3.390;2022-07-29T08:55:59;6.28;;;5.10;;
23260;SDS011;11799;47.740;-3.390;2022-07-29T08:58:27;2.97;;;1.70;;
23260;SDS011;11799;47.740;-3.390;2022-07-29T09:00:57;2.67;;;1.60;;
23260;SDS011;11799;47.740;-3.390;2022-07-29T09:03:30;2.70;;;1.65;;
23260;SDS011;11799;47.740;-3.390;2022-07-29T09:06:00;2.58;;;1.30;;
23260;SDS011;11799;47.740;-3.390;2022-07-29T09:08:27;3.20;;;1.60;;
23260;SDS011;11799;47.740;-3.390;2022-07-29T09:10:53;2.90;;;1.67;;
23260;SDS011;11799;47.740;-3.390;2022-07-29T09:13:21;2.95;;;1.50;;
23260;SDS011;11799;47.740;-3.390;2022-07-29T09:15:47;2.88;;;1.58;;
23260;SDS011;11799;47.740;-3.390;2022-07-29T09:20:59;3.30;;;1.20;;
23260;SDS011;11799;47.740;-3.390;2022-07-29T09:24:17;4.07;;;1.48;;
23260;SDS011;11799;47.740;-3.390;2022-07-29T09:26:40;2.03;;;1.30;;
23260;SDS011;11799;47.740;-3.390;2022-07-29T09:29:09;2.35;;;1.40;;
23260;SDS011;11799;47.740;-3.390;2022-07-29T09:31:40;3.80;;;1.27;;
23260;SDS011;11799;47.740;-3.390;2022-07-29T09:34:07;2.65;;;1.33;;
23260;SDS011;11799;47.740;-3.390;2022-07-29T09:36:44;3.65;;;1.45;;
23260;SDS011;11799;47.740;-3.390;2022-07-29T09:39:12;2.60;;;1.40;;
23260;SDS011;11799;47.740;-3.390;2022-07-29T09:41:45;4.07;;;1.48;;
23260;SDS011;11799;47.740;-3.390;2022-07-29T09:44:14;2.70;;;1.40;;
23260;SDS011;11799;47.740;-3.390;2022-07-29T09:46:57;2.80;;;1.20;;
23260;SDS011;11799;47.740;-3.390;2022-07-29T09:49:31;3.40;;;1.33;;
23260;SDS011;11799;47.740;-3.390;2022-07-29T09:52:02;2.85;;;1.20;;
23260;SDS011;11799;47.740;-3.390;2022-07-29T09:54:29;2.83;;;1.25;;
23260;SDS011;11799;47.740;-3.390;2022-07-29T09:59:24;3.22;;;1.25;;
23260;SDS011;11799;47.740;-3.390;2022-07-29T10:01:51;2.13;;;1.10;;
23260;SDS011;11799;47.740;-3.390;2022-07-29T10:04:18;2.55;;;1.38;;
23260;SDS011;11799;47.740;-3.390;2022-07-29T10:09:23;2.70;;;1.20;;
23260;SDS011;11799;47.740;-3.390;2022-07-29T10:14:35;2.70;;;1.40;;
23260;SDS011;11799;47.740;-3.390;2022-07-29T10:17:01;3.03;;;1.40;;
23260;SDS011;11799;47.740;-3.390;2022-07-29T10:19:29;3.00;;;1.33;;
23260;SDS011;11799;47.740;-3.390;2022-07-29T10:21:57;2.25;;;1.35;;
23260;SDS011;11799;47.740;-3.390;2022-07-29T10:24:27;4.45;;;1.40;;
23260;SDS011;11799;47.740;-3.390;2022-07-29T10:26:58;5.10;;;1.50;;
23260;SDS011;11799;47.740;-3.390;2022-07-29T10:29:25;2.22;;;1.20;;
23260;SDS011;11799;47.740;-3.390;2022-07-29T10:37:20;5.13;;;1.77;;
23260;SDS011;11799;47.740;-3.390;2022-07-29T10:43:23;4.05;;;1.48;;
23260;SDS011;11799;47.740;-3.390;2022-07-29T10:45:55;1.52;;;1.13;;
23260;SDS011;11799;47.740;-3.390;2022-07-29T10:48:23;5.20;;;1.40;;
23260;SDS011;11799;47.740;-3.390;2022-07-29T10:50:58;2.40;;;1.27;;
23260;SDS011;11799;47.740;-3.390;2022-07-29T11:01:50;3.65;;;1.38;;
23260;SDS011;11799;47.740;-3.390;2022-07-29T11:04:16;3.30;;;1.35;;
23260;SDS011;11799;47.740;-3.390;2022-07-29T11:07:10;2.60;;;1.42;;
23260;SDS011;11799;47.740;-3.390;2022-07-29T11:09:38;2.97;;;1.40;;
23260;SDS011;11799;47.740;-3.390;2022-07-29T11:12:09;3.90;;;1.52;;
23260;SDS011;11799;47.740;-3.390;2022-07-29T11:15:02;2.83;;;1.20;;
23260;SDS011;11799;47.740;-3.390;2022-07-29T11:17:49;4.05;;;1.60;;
23260;SDS011;11799;47.740;-3.390;2022-07-29T11:20:35;2.75;;;1.33;;
23260;SDS011;11799;47.740;-3.390;2022-07-29T11:28:48;2.33;;;1.42;;
23260;SDS011;11799;47.740;-3.390;2022-07-29T11:31:40;3.75;;;1.25;;
23260;SDS011;11799;47.740;-3.390;2022-07-29T11:39:35;3.78;;;1.70;;
23260;SDS011;11799;47.740;-3.390;2022-07-29T11:47:34;2.63;;;1.27;;
23260;SDS011;11799;47.740;-3.390;2022-07-29T11:50:02;2.58;;;1.45;;
23260;SDS011;11799;47.740;-3.390;2022-07-29T11:52:34;2.28;;;1.40;;
23260;SDS011;11799;47.740;-3.390;2022-07-29T11:55:03;3.15;;;1.55;;
23260;SDS011;11799;47.740;-3.390;2022-07-29T11:57:31;1.42;;;1.27;;
23260;SDS011;11799;47.740;-3.390;2022-07-29T11:59:59;3.33;;;1.38;;
23260;SDS011;11799;47.740;-3.390;2022-07-29T12:02:25;4.15;;;1.30;;
23260;SDS011;11799;47.740;-3.390;2022-07-29T12:05:04;1.77;;;1.30;;
23260;SDS011;11799;47.740;-3.390;2022-07-29T12:07:31;2.25;;;1.13;;
23260;SDS011;11799;47.740;-3.390;2022-07-29T12:09:58;3.92;;;1.23;;
23260;SDS011;11799;47.740;-3.390;2022-07-29T12:12:24;3.40;;;1.00;;
23260;SDS011;11799;47.740;-3.390;2022-07-29T12:14:50;1.25;;;0.98;;
23260;SDS011;11799;47.740;-3.390;2022-07-29T12:17:26;2.25;;;1.13;;
23260;SDS011;11799;47.740;-3.390;2022-07-29T12:19:54;2.83;;;1.20;;
23260;SDS011;11799;47.740;-3.390;2022-07-29T12:22:27;1.60;;;1.10;;
23260;SDS011;11799;47.740;-3.390;2022-07-29T12:24:54;2.80;;;1.10;;
23260;SDS011;11799;47.740;-3.390;2022-07-29T12:27:20;3.40;;;1.10;;
23260;SDS011;11799;47.740;-3.390;2022-07-29T12:29:56;2.60;;;1.23;;
23260;SDS011;11799;47.740;-3.390;2022-07-29T12:32:42;4.32;;;1.02;;
23260;SDS011;11799;47.740;-3.390;2022-07-29T12:37:39;3.92;;;1.25;;
23260;SDS011;11799;47.740;-3.390;2022-07-29T12:40:07;4.95;;;1.50;;
23260;SDS011;11799;47.740;-3.390;2022-07-29T12:42:34;2.33;;;1.05;;
23260;SDS011;11799;47.740;-3.390;2022-07-29T12:45:00;2.22;;;1.20;;
23260;SDS011;11799;47.740;-3.390;2022-07-29T12:47:27;3.80;;;1.00;;
23260;SDS011;11799;47.740;-3.390;2022-07-29T12:50:12;1.50;;;1.02;;
23260;SDS011;11799;47.740;-3.390;2022-07-29T12:55:09;5.60;;;1.35;;
23260;SDS011;11799;47.740;-3.390;2022-07-29T12:57:47;4.20;;;1.05;;
23260;SDS011;11799;47.740;-3.390;2022-07-29T13:00:16;3.47;;;1.13;;
23260;SDS011;11799;47.740;-3.390;2022-07-29T13:02:54;4.10;;;1.23;;
23260;SDS011;11799;47.740;-3.390;2022-07-29T13:05:21;2.83;;;1.00;;
23260;SDS011;11799;47.740;-3.390;2022-07-29T13:07:46;2.47;;;1.00;;
23260;SDS011;11799;47.740;-3.390;2022-07-29T13:12:39;1.67;;;1.20;;
23260;SDS011;11799;47.740;-3.390;2022-07-29T13:15:25;3.47;;;0.98;;
23260;SDS011;11799;47.740;-3.390;2022-07-29T13:17:50;1.50;;;1.17;;
23260;SDS011;11799;47.740;-3.390;2022-07-29T13:20:16;5.03;;;1.27;;
23260;SDS011;11799;47.740;-3.390;2022-07-29T13:22:41;2.22;;;0.95;;
23260;SDS011;11799;47.740;-3.390;2022-07-29T13:25:07;2.20;;;1.17;;
23260;SDS011;11799;47.740;-3.390;2022-07-29T13:27:35;2.05;;;1.02;;
23260;SDS011;11799;47.740;-3.390;2022-07-29T13:30:03;2.95;;;0.98;;
23260;SDS011;11799;47.740;-3.390;2022-07-29T13:32:31;4.17;;;1.10;;
23260;SDS011;11799;47.740;-3.390;2022-07-29T13:35:00;3.95;;;1.15;;
23260;SDS011;11799;47.740;-3.390;2022-07-29T13:37:27;1.60;;;1.10;;
23260;SDS011;11799;47.740;-3.390;2022-07-29T13:39:55;2.88;;;1.30;;
23260;SDS011;11799;47.740;-3.390;2022-07-29T13:42:21;4.85;;;1.15;;
23260;SDS011;11799;47.740;-3.390;2022-07-29T13:44:48;3.60;;;1.20;;
23260;SDS011;11799;47.740;-3.390;2022-07-29T13:47:16;3.30;;;0.90;;
23260;SDS011;11799;47.740;-3.390;2022-07-29T13:49:41;4.07;;;1.30;;
23260;SDS011;11799;47.740;-3.390;2022-07-29T13:52:07;3.10;;;1.10;;
23260;SDS011;11799;47.740;-3.390;2022-07-29T13:54:32;4.10;;;1.10;;
23260;SDS011;11799;47.740;-3.390;2022-07-29T13:56:58;3.85;;;1.20;;
23260;SDS011;11799;47.740;-3.390;2022-07-29T13:59:23;2.75;;;1.25;;
23260;SDS011;11799;47.740;-3.390;2022-07-29T14:01:49;3.60;;;1.05;;
23260;SDS011;11799;47.740;-3.390;2022-07-29T14:04:14;2.53;;;1.20;;
23260;SDS011;11799;47.740;-3.390;2022-07-29T14:06:40;2.78;;;1.30;;
23260;SDS011;11799;47.740;-3.390;2022-07-29T14:09:06;3.65;;;1.30;;
23260;SDS011;11799;47.740;-3.390;2022-07-29T14:11:33;5.30;;;1.27;;
23260;SDS011;11799;47.740;-3.390;2022-07-29T14:13:59;3.03;;;1.08;;
23260;SDS011;11799;47.740;-3.390;2022-07-29T14:16:25;4.60;;;1.40;;
23260;SDS011;11799;47.740;-3.390;2022-07-29T14:18:50;3.70;;;1.50;;
23260;SDS011;11799;47.740;-3.390;2022-07-29T14:21:16;5.15;;;1.25;;
23260;SDS011;11799;47.740;-3.390;2022-07-29T14:23:42;2.28;;;1.23;;
23260;SDS011;11799;47.740;-3.390;2022-07-29T14:26:07;3.65;;;1.25;;
23260;SDS011;11799;47.740;-3.390;2022-07-29T14:28:33;4.75;;;1.40;;
23260;SDS011;11799;47.740;-3.390;2022-07-29T14:30:58;2.83;;;1.30;;
23260;SDS011;11799;47.740;-3.390;2022-07-29T14:33:24;4.70;;;1.70;;
23260;SDS011;11799;47.740;-3.390;2022-07-29T14:35:49;3.13;;;1.10;;
23260;SDS011;11799;47.740;-3.390;2022-07-29T14:38:15;3.97;;;1.30;;
23260;SDS011;11799;47.740;-3.390;2022-07-29T14:40:40;3.35;;;1.30;;
23260;SDS011;11799;47.740;-3.390;2022-07-29T14:43:06;3.72;;;1.30;;
23260;SDS011;11799;47.740;-3.390;2022-07-29T14:45:32;2.75;;;1.20;;
23260;SDS011;11799;47.740;-3.390;2022-07-29T14:47:57;4.57;;;1.63;;
23260;SDS011;11799;47.740;-3.390;2022-07-29T14:50:23;4.10;;;1.60;;
23260;SDS011;11799;47.740;-3.390;2022-07-29T14:52:51;3.97;;;1.20;;
23260;SDS011;11799;47.740;-3.390;2022-07-29T14:55:17;2.35;;;1.40;;
23260;SDS011;11799;47.740;-3.390;2022-07-29T14:57:42;1.92;;;1.40;;
23260;SDS011;11799;47.740;-3.390;2022-07-29T15:00:08;1.85;;;1.40;;
23260;SDS011;11799;47.740;-3.390;2022-07-29T15:02:35;6.00;;;1.70;;
23260;SDS011;11799;47.740;-3.390;2022-07-29T15:05:00;5.85;;;1.38;;
23260;SDS011;11799;47.740;-3.390;2022-07-29T15:07:27;8.65;;;1.40;;
23260;SDS011;11799;47.740;-3.390;2022-07-29T15:09:53;3.28;;;1.40;;
23260;SDS011;11799;47.740;-3.390;2022-07-29T15:12:18;5.88;;;1.15;;
23260;SDS011;11799;47.740;-3.390;2022-07-29T15:14:44;1.90;;;1.20;;
23260;SDS011;11799;47.740;-3.390;2022-07-29T15:17:09;5.15;;;1.45;;
23260;SDS011;11799;47.740;-3.390;2022-07-29T15:19:35;4.20;;;1.48;;
23260;SDS011;11799;47.740;-3.390;2022-07-29T15:22:00;5.10;;;1.30;;
23260;SDS011;11799;47.740;-3.390;2022-07-29T15:24:26;3.72;;;1.30;;
23260;SDS011;11799;47.740;-3.390;2022-07-29T15:26:52;3.55;;;1.40;;
23260;SDS011;11799;47.740;-3.390;2022-07-29T15:29:18;3.63;;;1.20;;
23260;SDS011;11799;47.740;-3.390;2022-07-29T15:31:43;4.60;;;1.33;;
23260;SDS011;11799;47.740;-3.390;2022-07-29T15:34:09;4.75;;;1.20;;
23260;SDS011;11799;47.740;-3.390;2022-07-29T15:36:34;3.92;;;1.38;;
23260;SDS011;11799;47.740;-3.390;2022-07-29T15:39:00;4.32;;;1.30;;
23260;SDS011;11799;47.740;-3.390;2022-07-29T15:41:26;3.13;;;1.38;;
23260;SDS011;11799;47.740;-3.390;2022-07-29T15:43:52;3.30;;;1.25;;
23260;SDS011;11799;47.740;-3.390;2022-07-29T15:46:18;1.45;;;1.25;;
23260;SDS011;11799;47.740;-3.390;2022-07-29T15:49:03;2.72;;;1.30;;